Time;durP1;ratioP1;P1;durP2;ratioP2;P2;SDS_P1;SDS_P2;PMS_P1;PMS_P2;Temp;Humidity;BMP_temperature;BMP_pressure;BME280_temperature;BME280_humidity;BME280_pressure;Samples;Min_cycle;Max_cycle;Signal;HPM_P1;HPM_P2
2022/03/21 00:01:04;;;;;;;51.55;28.73;;;;;;;0.50;75.18;102919.78;5024135;28;20041;-78
2022/03/21 00:03:30;;;;;;;51.85;29.33;;;;;;;0.54;75.88;102926.13;5025356;28;20025;-78
2022/03/21 00:05:57;;;;;;;50.15;28.45;;;;;;;0.51;73.30;102921.59;5024746;28;20041;-78
2022/03/21 00:08:22;;;;;;;50.28;28.25;;;;;;;0.45;73.28;102926.13;5026010;28;20272;-78
2022/03/21 00:10:49;;;;;;;49.22;28.23;;;;;;;0.40;74.40;102924.75;5025294;28;20022;-77
2022/03/21 00:13:15;;;;;;;48.38;27.48;;;;;;;0.40;74.39;102926.44;5024264;28;20033;-77
2022/03/21 00:15:46;;;;;;;49.28;28.40;;;;;;;0.37;74.48;102929.59;5024318;28;20166;-77
2022/03/21 00:18:15;;;;;;;53.97;29.52;;;;;;;0.35;74.66;102928.53;5024454;28;20109;-77
2022/03/21 00:20:42;;;;;;;;;;;;;;;0.42;73.06;102930.97;5024001;28;20018;-77
2022/03/21 00:23:07;;;;;;;48.50;27.30;;;;;;;0.40;75.05;102935.00;5024929;28;19916;-77
2022/03/21 00:25:33;;;;;;;49.88;27.33;;;;;;;0.36;75.35;102935.47;5024339;28;20045;-77
2022/03/21 00:27:58;;;;;;;49.88;27.92;;;;;;;0.34;75.26;102939.53;5027164;28;20264;-77
2022/03/21 00:30:24;;;;;;;52.65;29.55;;;;;;;0.34;75.10;102931.84;5023460;28;20102;-77
2022/03/21 00:32:50;;;;;;;54.17;29.27;;;;;;;0.33;75.15;102941.22;5025287;28;20022;-77
2022/03/21 00:35:15;;;;;;;49.80;28.35;;;;;;;0.29;75.21;102939.09;5023540;28;20029;-77
2022/03/21 00:37:42;;;;;;;51.35;27.98;;;;;;;0.26;75.29;102943.00;5027395;28;20324;-77
2022/03/21 00:40:08;;;;;;;47.83;27.40;;;;;;;0.21;75.94;102941.66;5023473;28;20021;-77
2022/03/21 00:42:35;;;;;;;46.25;26.77;;;;;;;0.14;75.47;102950.38;5020406;28;20073;-77
2022/03/21 00:45:06;;;;;;;47.63;27.25;;;;;;;0.11;75.26;102947.53;5023717;28;20013;-77
2022/03/21 00:47:32;;;;;;;49.67;28.23;;;;;;;0.09;74.83;102944.81;5022583;28;20161;-77
2022/03/21 00:49:58;;;;;;;50.58;27.48;;;;;;;0.07;74.53;102946.28;5024312;28;20265;-77
2022/03/21 00:52:23;;;;;;;51.95;28.90;;;;;;;0.08;74.54;102953.22;5023874;28;20033;-77
2022/03/21 00:54:49;;;;;;;51.88;28.73;;;;;;;0.09;75.20;102949.94;5025302;28;20026;-77
2022/03/21 00:57:14;;;;;;;49.60;28.50;;;;;;;0.09;75.21;102944.81;5023552;28;20033;-77
2022/03/21 00:59:39;;;;;;;54.28;29.60;;;;;;;0.11;76.25;102953.53;5025097;28;20109;-77
2022/03/21 01:02:05;;;;;;;55.00;30.88;;;;;;;0.14;76.33;102953.84;5023811;28;20026;-77
2022/03/21 01:04:30;;;;;;;56.78;30.70;;;;;;;0.17;76.34;102950.69;5023535;28;20052;-77
2022/03/21 01:06:55;;;;;;;56.65;30.67;;;;;;;0.15;76.28;102955.66;5024348;28;20116;-77
2022/03/21 01:09:21;;;;;;;53.05;30.02;;;;;;;0.14;76.22;102948.72;5024827;28;20048;-77
2022/03/21 01:11:46;;;;;;;53.47;28.88;;;;;;;0.10;76.11;102955.94;5022792;28;20026;-77
2022/03/21 01:14:12;;;;;;;57.03;30.38;;;;;;;0.07;75.74;102950.53;5019402;28;20286;-77
2022/03/21 01:16:38;;;;;;;56.63;30.95;;;;;;;0.08;75.83;102954.91;5022261;28;20072;-77
2022/03/21 01:19:05;;;;;;;47.80;25.58;;;;;;;0.05;75.53;102965.75;5024420;28;20049;-77
2022/03/21 01:21:31;;;;;;;48.88;26.50;;;;;;;-0.05;75.20;102960.44;5027744;28;20022;-77
2022/03/21 01:23:56;;;;;;;53.53;28.63;;;;;;;-0.12;76.52;102963.16;5024640;28;20026;-77
2022/03/21 01:26:22;;;;;;;53.65;29.30;;;;;;;-0.19;76.22;102959.03;5023401;28;20089;-77
2022/03/21 01:28:47;;;;;;;52.13;27.92;;;;;;;-0.23;76.61;102960.41;5023688;28;20064;-77
2022/03/21 01:31:13;;;;;;;52.17;27.80;;;;;;;-0.28;76.53;102961.59;5022708;28;20042;-77
2022/03/21 01:33:40;;;;;;;52.78;28.33;;;;;;;-0.31;76.92;102958.72;5022051;28;20021;-78
2022/03/21 01:36:07;;;;;;;53.53;29.10;;;;;;;-0.32;77.61;102958.56;5023719;28;20169;-78
2022/03/21 01:38:33;;;;;;;51.25;28.67;;;;;;;-0.31;78.14;102961.28;5017583;28;20018;-78
2022/03/21 01:40:58;;;;;;;53.22;28.38;;;;;;;-0.31;77.61;102970.63;5019649;28;20034;-78
2022/03/21 01:43:23;;;;;;;51.15;28.00;;;;;;;-0.35;76.87;102969.38;5023294;28;20048;-78
2022/03/21 01:45:49;;;;;;;51.05;27.95;;;;;;;-0.41;77.17;102966.22;5023003;28;20088;-78
2022/03/21 01:48:14;;;;;;;52.33;29.27;;;;;;;-0.44;77.34;102965.91;5022993;28;20232;-78
2022/03/21 01:50:42;;;;;;;51.42;28.90;;;;;;;-0.43;78.01;102960.03;5020525;28;20052;-78
2022/03/21 01:55:56;;;;;;;55.05;28.88;;;;;;;-0.45;78.41;102962.44;5022865;28;20025;-78
2022/03/21 01:58:21;;;;;;;53.63;29.20;;;;;;;-0.44;78.50;102958.22;5024481;28;20022;-78
2022/03/21 02:00:47;;;;;;;54.30;29.50;;;;;;;-0.41;78.02;102968.78;5023915;28;20076;-78
2022/03/21 02:03:12;;;;;;;54.90;28.88;;;;;;;-0.39;78.23;102957.00;5029320;28;20046;-77
2022/03/21 02:05:38;;;;;;;53.45;29.27;;;;;;;-0.37;77.84;102963.22;5023438;28;20356;-77
2022/03/21 02:08:04;;;;;;;53.78;29.65;;;;;;;-0.33;77.42;102962.78;5028634;28;20287;-77
2022/03/21 02:10:30;;;;;;;56.42;30.30;;;;;;;-0.31;76.94;102956.16;5021445;28;20097;-77
2022/03/21 02:12:56;;;;;;;55.45;30.20;;;;;;;-0.30;78.15;102957.97;5022959;28;20025;-77
2022/03/21 02:15:21;;;;;;;56.15;30.23;;;;;;;-0.29;77.61;102964.00;5023199;28;20264;-77
2022/03/21 02:17:48;;;;;;;58.70;30.33;;;;;;;-0.32;77.29;102962.00;5022042;28;20053;-77
2022/03/21 02:20:18;;;;;;;57.90;30.55;;;;;;;-0.32;78.15;102967.13;5022940;28;20030;-77
2022/03/21 02:23:08;;;;;;;55.97;30.67;;;;;;;-0.33;76.54;102967.91;5020036;28;20029;-77
2022/03/21 02:25:41;;;;;;;54.92;29.05;;;;;;;-0.38;76.60;102969.09;5017992;28;20034;-77
2022/03/21 02:28:09;;;;;;;52.00;28.45;;;;;;;-0.41;75.93;102973.91;5022244;28;20188;-78
2022/03/21 02:30:38;;;;;;;51.42;28.65;;;;;;;-0.44;76.19;102974.47;5022792;28;20025;-78
2022/03/21 02:33:04;;;;;;;58.60;29.83;;;;;;;-0.44;76.25;102971.91;5020809;28;20110;-78
2022/03/21 02:35:31;;;;;;;54.08;28.77;;;;;;;-0.45;76.42;102965.00;5021320;28;20084;-78
2022/03/21 02:37:57;;;;;;;55.92;30.00;;;;;;;-0.47;77.19;102963.03;5020883;28;20036;-78
2022/03/21 02:40:23;;;;;;;53.95;28.88;;;;;;;-0.50;76.66;102967.84;5022496;28;20025;-78
2022/03/21 02:42:49;;;;;;;49.80;27.33;;;;;;;-0.55;77.95;102973.41;5021564;28;20330;-78
2022/03/21 02:45:14;;;;;;;55.13;28.33;;;;;;;-0.61;77.95;102974.41;5022566;28;20041;-78
2022/03/21 02:47:40;;;;;;;48.22;26.80;;;;;;;-0.63;78.31;102979.38;5021037;28;20046;-78
2022/03/21 02:50:11;;;;;;;50.63;27.20;;;;;;;-0.64;77.96;102979.22;5023904;28;20295;-78
2022/03/21 02:52:39;;;;;;;53.72;28.55;;;;;;;-0.66;78.37;102975.59;5023458;28;20276;-78
2022/03/21 02:55:04;;;;;;;51.72;28.30;;;;;;;-0.67;78.65;102982.34;5021598;28;20037;-78
2022/03/21 02:57:31;;;;;;;53.83;29.08;;;;;;;-0.67;78.25;102969.56;5020498;28;20100;-78
2022/03/21 02:59:57;;;;;;;50.90;27.83;;;;;;;-0.66;78.67;102971.38;5019943;28;20275;-78
2022/03/21 03:02:22;;;;;;;49.80;28.13;;;;;;;-0.66;78.89;102971.38;5028139;28;20052;-78
2022/03/21 03:04:48;;;;;;;53.40;30.25;;;;;;;-0.68;78.62;102971.97;5022569;28;20311;-78
2022/03/21 03:07:13;;;;;;;54.53;29.52;;;;;;;-0.68;78.28;102967.75;5021438;28;20075;-78
2022/03/21 03:09:38;;;;;;;54.22;29.67;;;;;;;-0.67;77.91;102959.31;5020533;28;20033;-78
2022/03/21 03:12:04;;;;;;;57.53;29.90;;;;;;;-0.65;78.07;102962.97;5017354;28;20053;-78
2022/03/21 03:14:29;;;;;;;50.22;27.92;;;;;;;-0.65;79.13;102972.28;5017360;28;20267;-78
2022/03/21 03:16:56;;;;;;;49.90;27.88;;;;;;;-0.68;78.10;102967.75;5026461;28;20028;-78
2022/03/21 03:19:21;;;;;;;46.35;26.50;;;;;;;-0.76;77.69;102969.50;5022200;28;20050;-78
2022/03/21 03:21:49;;;;;;;53.25;29.30;;;;;;;-0.82;78.15;102973.09;5020599;28;20030;-78
2022/03/21 03:24:18;;;;;;;53.90;29.10;;;;;;;-0.86;78.40;102970.97;5018033;28;20089;-78
2022/03/21 03:26:43;;;;;;;58.95;29.38;;;;;;;-0.86;78.28;102970.97;5021386;28;20053;-78
2022/03/21 03:29:08;;;;;;;51.92;27.85;;;;;;;-0.89;79.38;102971.56;5018085;28;20036;-79
2022/03/21 03:31:35;;;;;;;53.13;29.23;;;;;;;-0.88;80.06;102973.38;5022737;28;20085;-78
2022/03/21 03:34:02;;;;;;;53.67;28.90;;;;;;;-0.86;79.56;102974.44;5021478;28;20209;-78
2022/03/21 03:36:27;;;;;;;54.00;28.90;;;;;;;-0.85;79.70;102981.38;5022171;28;20026;-79
2022/03/21 03:38:52;;;;;;;61.13;31.67;;;;;;;-0.84;79.50;102992.50;5020831;28;20279;-79
2022/03/21 03:41:19;;;;;;;55.67;29.90;;;;;;;-0.89;79.74;102982.69;5020677;28;20180;-79
2022/03/21 03:43:45;;;;;;;57.20;29.55;;;;;;;-0.93;79.44;102988.25;5020967;28;20038;-79
2022/03/21 03:46:10;;;;;;;55.50;29.20;;;;;;;-0.97;79.70;102982.63;5016441;28;20026;-79
2022/03/21 03:48:36;;;;;;;57.47;29.83;;;;;;;-0.98;79.85;102981.72;5033602;28;20273;-79
2022/03/21 03:51:03;;;;;;;54.83;30.00;;;;;;;-0.97;79.97;102986.13;5020405;28;20260;-79
2022/03/21 03:53:29;;;;;;;62.50;32.25;;;;;;;-0.97;80.79;102991.22;5021284;28;20092;-78
2022/03/21 03:55:54;;;;;;;67.65;34.10;;;;;;;-0.94;81.62;102993.19;5020932;28;20261;-79
2022/03/21 03:58:19;;;;;;;60.88;30.58;;;;;;;-0.94;81.72;102994.09;5020974;28;20061;-79
2022/03/21 04:00:46;;;;;;;56.55;30.40;;;;;;;-0.97;81.00;102986.13;5027579;28;20265;-79
2022/03/21 04:05:56;;;;;;;57.83;31.17;;;;;;;-0.99;81.15;103000.38;5021451;28;20080;-79
2022/03/21 04:08:21;;;;;;;53.92;30.48;;;;;;;-1.05;80.16;102999.75;5022014;28;20416;-78
2022/03/21 04:10:47;;;;;;;56.40;29.88;;;;;;;-1.10;80.54;102996.72;5019807;28;20026;-78
2022/03/21 04:13:12;;;;;;;58.50;30.35;;;;;;;-1.12;80.79;102993.06;5013289;28;20207;-78
2022/03/21 04:15:37;;;;;;;59.85;31.60;;;;;;;-1.12;80.76;102992.16;5019273;28;20259;-78
2022/03/21 04:18:06;;;;;;;57.28;30.27;;;;;;;-1.11;81.12;102999.09;5021064;28;20022;-78
2022/03/21 04:20:33;;;;;;;57.20;29.50;;;;;;;-1.12;80.08;103000.72;5018675;28;20025;-78
2022/03/21 04:22:58;;;;;;;57.70;30.73;;;;;;;-1.13;80.33;102995.47;5021516;28;20233;-78
2022/03/21 04:25:24;;;;;;;60.88;32.67;;;;;;;-1.16;80.21;102993.50;5019845;28;20046;-78
2022/03/21 04:27:50;;;;;;;57.88;31.77;;;;;;;-1.16;80.88;102995.13;5019107;28;20052;-78
2022/03/21 04:30:16;;;;;;;62.63;31.58;;;;;;;-1.16;80.19;102980.72;5020618;28;20053;-78
2022/03/21 04:32:43;;;;;;;58.88;31.48;;;;;;;-1.12;80.14;102989.59;5021252;28;20057;-78
2022/03/21 04:35:09;;;;;;;62.20;31.40;;;;;;;-1.09;79.78;102985.69;5020743;28;20044;-78
2022/03/21 04:37:34;;;;;;;61.92;32.33;;;;;;;-1.06;78.81;102985.13;5019305;28;20045;-78
2022/03/21 04:40:00;;;;;;;65.55;31.80;;;;;;;-1.06;79.55;102983.50;5021694;28;20316;-78
2022/03/21 04:42:25;;;;;;;61.08;32.97;;;;;;;-1.06;79.44;102991.16;5023829;28;20026;-78
2022/03/21 04:44:50;;;;;;;61.08;31.77;;;;;;;-1.03;79.30;102987.09;5023401;28;20014;-78
2022/03/21 04:47:17;;;;;;;58.72;31.58;;;;;;;-1.03;79.26;102990.56;5024302;28;20037;-78
2022/03/21 04:49:44;;;;;;;59.05;31.55;;;;;;;-1.03;79.11;102990.56;5023053;28;20096;-78
2022/03/21 04:52:09;;;;;;;62.45;32.40;;;;;;;-1.02;80.71;102986.38;5023997;28;20044;-78
2022/03/21 04:54:34;;;;;;;57.75;30.60;;;;;;;-1.05;79.72;102997.19;5023419;28;20021;-78
2022/03/21 04:57:00;;;;;;;58.97;29.65;;;;;;;-1.10;79.17;102998.34;5025877;28;20025;-78
2022/03/21 04:59:25;;;;;;;56.42;31.00;;;;;;;-1.18;79.00;102996.63;5024328;28;20017;-78
2022/03/21 05:01:51;;;;;;;58.60;30.80;;;;;;;-1.26;78.63;103001.84;5020001;28;20022;-78
2022/03/21 05:04:17;;;;;;;58.80;31.17;;;;;;;-1.33;79.28;103003.56;5021870;28;20032;-78
2022/03/21 05:06:43;;;;;;;61.63;32.10;;;;;;;-1.36;79.82;103009.28;5023582;28;20029;-78
2022/03/21 05:09:08;;;;;;;58.70;30.63;;;;;;;-1.38;79.79;103013.31;5024809;28;20041;-78
2022/03/21 05:11:34;;;;;;;63.42;32.78;;;;;;;-1.37;80.72;103011.69;5022142;28;20030;-78
2022/03/21 05:13:59;;;;;;;63.80;32.70;;;;;;;-1.38;80.52;103012.41;5023881;28;20030;-78
2022/03/21 05:16:24;;;;;;;62.97;33.55;;;;;;;-1.36;80.27;103014.41;5023783;28;20030;-78
2022/03/21 05:18:50;;;;;;;59.60;31.88;;;;;;;-1.33;80.33;103011.25;5022266;28;20022;-78
2022/03/21 05:21:16;;;;;;;62.60;32.60;;;;;;;-1.30;80.43;103014.16;5022271;28;20261;-79
2022/03/21 05:31:54;;;;;;;59.75;30.92;;;;;;;-1.29;80.03;103014.31;5023477;28;20029;-78
2022/03/21 05:37:04;;;;;;;59.13;30.50;;;;;;;-1.25;80.23;103021.53;5023281;28;20040;-78
2022/03/21 05:39:29;;;;;;;60.00;30.60;;;;;;;-1.25;80.19;103012.97;5021034;28;20113;-78
2022/03/21 05:41:54;;;;;;;60.60;31.45;;;;;;;-1.27;79.69;103023.03;5022807;28;20735;-78
2022/03/21 05:44:20;;;;;;;63.30;31.83;;;;;;;-1.27;80.57;103012.81;5021779;28;20065;-78
2022/03/21 05:46:46;;;;;;;58.63;31.83;;;;;;;-1.24;81.00;103015.69;5020301;28;20030;-78
2022/03/21 05:49:11;;;;;;;59.40;31.77;;;;;;;-1.24;80.97;103018.25;5021836;28;20030;-78
2022/03/21 05:51:38;;;;;;;63.08;31.67;;;;;;;-1.24;80.50;103010.56;5022186;28;20025;-78
2022/03/21 05:54:09;;;;;;;59.03;31.10;;;;;;;-1.25;80.37;103010.41;5023816;28;20029;-78
2022/03/21 05:56:35;;;;;;;63.47;32.05;;;;;;;-1.24;80.32;103009.69;5026948;28;20025;-78
2022/03/21 06:00:20;;;;;;;62.28;31.45;;;;;;;-1.24;80.43;103015.69;5021882;28;20038;-78
2022/03/21 06:01:47;;;;;;;59.42;29.98;;;;;;;-1.20;80.52;103021.13;5021780;28;20061;-78
2022/03/21 06:04:14;;;;;;;61.95;31.23;;;;;;;-1.18;80.90;103028.22;5011067;28;20034;-79
2022/03/21 06:06:40;;;;;;;60.92;30.13;;;;;;;-1.16;80.62;103030.94;5023131;28;20038;-79
2022/03/21 06:09:05;;;;;;;60.40;32.15;;;;;;;-1.13;81.01;103028.72;5021596;28;20040;-78
2022/03/21 06:11:30;;;;;;;68.85;32.60;;;;;;;-1.11;81.03;103027.25;5020812;28;20030;-78
2022/03/21 06:13:56;;;;;;;62.60;32.75;;;;;;;-1.10;80.49;103029.97;5023132;28;20037;-78
2022/03/21 06:16:21;;;;;;;59.92;31.83;;;;;;;-1.09;80.50;103033.41;5021922;28;20172;-78
2022/03/21 06:18:46;;;;;;;60.63;31.30;;;;;;;-1.06;80.87;103033.75;5022970;28;20033;-78
2022/03/21 06:21:13;;;;;;;59.60;31.67;;;;;;;-1.03;81.63;103034.06;5021969;28;20200;-79
2022/03/21 06:23:38;;;;;;;62.58;30.92;;;;;;;-1.00;81.66;103034.41;5022479;28;20073;-79
2022/03/21 06:26:05;;;;;;;65.63;32.40;;;;;;;-0.97;81.89;103038.91;5021543;28;20100;-79
2022/03/21 06:28:32;;;;;;;63.58;31.05;;;;;;;-0.93;81.50;103046.19;5023299;28;20048;-78
2022/03/21 06:30:58;;;;;;;58.33;30.85;;;;;;;-0.92;80.91;103038.66;5021068;28;20021;-79
2022/03/21 06:33:27;;;;;;;63.97;31.38;;;;;;;-0.89;81.84;103051.78;5023367;28;20096;-79
2022/03/21 06:35:54;;;;;;;66.03;32.83;;;;;;;-0.84;81.83;103047.16;5023331;28;20045;-79
2022/03/21 06:38:20;;;;;;;63.53;30.80;;;;;;;-0.82;81.54;103047.31;5021760;28;20030;-79
2022/03/21 06:40:45;;;;;;;69.38;32.65;;;;;;;-0.78;81.73;103044.31;5022305;28;20044;-79
2022/03/21 06:43:14;;;;;;;63.45;31.20;;;;;;;-0.73;82.19;103051.72;5021834;28;20089;-79
2022/03/21 06:45:39;;;;;;;61.97;32.08;;;;;;;-0.68;82.06;103054.81;5021761;28;20034;-79
2022/03/21 06:48:05;;;;;;;62.35;31.75;;;;;;;-0.62;82.28;103055.44;5027897;28;20038;-79
2022/03/21 06:50:30;;;;;;;63.15;32.00;;;;;;;-0.40;83.06;103062.78;5022732;28;20066;-79
2022/03/21 06:52:55;;;;;;;66.03;33.85;;;;;;;0.18;81.52;103057.59;5021141;28;20045;-79
2022/03/21 06:55:21;;;;;;;69.50;34.47;;;;;;;0.80;80.04;103062.09;5020477;28;20037;-79
2022/03/21 06:57:46;;;;;;;66.32;34.92;;;;;;;1.36;79.25;103062.34;5018349;28;20288;-79
2022/03/21 07:00:16;;;;;;;61.78;33.42;;;;;;;1.90;76.85;103057.22;5022297;28;20036;-79
2022/03/21 07:02:42;;;;;;;64.95;34.10;;;;;;;2.50;75.26;103055.06;5014728;28;20025;-79
2022/03/21 07:05:08;;;;;;;64.32;34.80;;;;;;;2.92;74.35;103064.00;5022203;28;20029;-79
2022/03/21 07:07:34;;;;;;;64.93;33.75;;;;;;;3.54;71.96;103062.66;5022199;28;20048;-79
2022/03/21 07:10:01;;;;;;;60.72;34.00;;;;;;;4.38;69.36;103062.06;5020466;28;20026;-79
2022/03/21 07:12:27;;;;;;;64.28;34.20;;;;;;;4.96;67.34;103059.16;5021929;28;20037;-79
2022/03/21 07:14:52;;;;;;;62.33;33.88;;;;;;;5.68;66.30;103065.78;5021961;28;20037;-79
2022/03/21 07:17:20;;;;;;;61.38;34.40;;;;;;;6.51;63.05;103064.47;5022311;28;20276;-79
2022/03/21 07:19:46;;;;;;;56.13;32.53;;;;;;;7.18;60.82;103069.41;5022469;28;20097;-80
2022/03/21 07:22:12;;;;;;;62.60;34.80;;;;;;;7.55;59.72;103062.59;5020039;28;20038;-80
2022/03/21 07:24:38;;;;;;;63.78;35.15;;;;;;;7.73;59.48;103063.00;5009627;28;20038;-80
2022/03/21 07:27:04;;;;;;;62.97;35.25;;;;;;;7.84;58.94;103064.66;5021936;28;20069;-80
2022/03/21 07:29:29;;;;;;;60.80;34.58;;;;;;;8.27;59.93;103063.25;5021330;28;20088;-80
2022/03/21 07:31:55;;;;;;;64.53;36.60;;;;;;;8.68;58.93;103060.03;5022067;28;20029;-80
2022/03/21 07:34:20;;;;;;;62.45;35.55;;;;;;;8.99;57.37;103060.38;5022375;28;20252;-80
2022/03/21 07:36:46;;;;;;;63.80;36.58;;;;;;;9.15;58.13;103067.47;5020228;28;20149;-79
2022/03/21 07:39:13;;;;;;;65.20;37.30;;;;;;;9.73;55.71;103059.88;5022158;28;20107;-79
2022/03/21 07:41:39;;;;;;;63.72;36.65;;;;;;;10.07;54.94;103066.28;5019296;28;20268;-80
2022/03/21 07:44:05;;;;;;;69.22;39.15;;;;;;;10.35;55.26;103060.19;5020013;28;20036;-80
2022/03/21 07:49:15;;;;;;;73.47;41.22;;;;;;;10.93;53.57;103066.25;5020726;28;20033;-80
2022/03/21 07:51:43;;;;;;;83.28;41.60;;;;;;;10.13;55.19;103066.66;5021931;28;20030;-80
2022/03/21 07:54:11;;;;;;;88.43;43.88;;;;;;;9.22;57.14;103069.69;5021145;28;20080;-80
2022/03/21 07:56:37;;;;;;;96.00;46.20;;;;;;;8.45;60.82;103068.84;5024576;28;20033;-80
2022/03/21 07:59:03;;;;;;;97.80;45.20;;;;;;;7.77;62.76;103067.63;5015644;28;20320;-80
2022/03/21 08:01:30;;;;;;;99.97;45.20;;;;;;;7.26;66.41;103071.75;5021566;28;20093;-80
2022/03/21 08:04:00;;;;;;;102.70;45.08;;;;;;;6.88;68.53;103068.91;5021939;28;20129;-80
2022/03/21 08:06:26;;;;;;;109.70;46.03;;;;;;;6.62;69.89;103075.66;5020460;28;20065;-80
2022/03/21 08:08:54;;;;;;;101.15;44.95;;;;;;;6.43;71.33;103073.34;5020661;28;20033;-79
2022/03/21 08:11:23;;;;;;;112.28;47.35;;;;;;;6.29;72.53;103079.16;5020834;28;20034;-79
2022/03/21 08:13:49;;;;;;;121.57;47.87;;;;;;;6.20;72.90;103076.75;5020865;28;20024;-79
2022/03/21 08:16:19;;;;;;;135.70;49.38;;;;;;;6.13;73.82;103077.97;5025373;28;20064;-79
2022/03/21 08:18:49;;;;;;;126.13;49.63;;;;;;;6.10;74.88;103075.16;5016500;28;20045;-79
2022/03/21 08:21:14;;;;;;;126.93;47.97;;;;;;;6.11;75.25;103079.50;5022662;28;20033;-79
2022/03/21 08:23:42;;;;;;;120.68;47.38;;;;;;;6.15;75.52;103078.97;5025019;28;20177;-80
2022/03/21 08:26:08;;;;;;;102.15;41.35;;;;;;;6.23;76.08;103077.91;5022435;28;20174;-76
2022/03/21 08:28:33;;;;;;;112.82;42.80;;;;;;;6.32;75.94;103079.41;5023762;28;20137;-77
2022/03/21 08:30:58;;;;;;;120.15;44.55;;;;;;;6.40;76.36;103079.22;5023156;28;20042;-77
2022/03/21 08:33:23;;;;;;;123.47;44.45;;;;;;;6.48;75.84;103079.78;5023312;28;20067;-77
2022/03/21 08:35:49;;;;;;;114.50;43.15;;;;;;;6.58;76.22;103074.50;5023051;28;20038;-77
2022/03/21 08:38:14;;;;;;;117.35;41.95;;;;;;;6.69;76.21;103082.19;5022599;28;20033;-76
2022/03/21 08:40:40;;;;;;;113.35;41.28;;;;;;;6.78;75.68;103078.63;5023568;28;20112;-77
2022/03/21 08:43:06;;;;;;;113.20;40.30;;;;;;;6.89;75.26;103084.59;5023578;28;20095;-77
2022/03/21 08:45:32;;;;;;;115.18;41.40;;;;;;;7.02;75.78;103088.09;5019513;28;20081;-77
2022/03/21 08:47:57;;;;;;;109.55;40.35;;;;;;;7.13;74.60;103082.03;5016404;28;20046;-77
2022/03/21 08:50:23;;;;;;;104.07;38.72;;;;;;;7.25;73.08;103080.31;5024168;28;20279;-77
2022/03/21 08:52:48;;;;;;;116.68;39.63;;;;;;;7.36;73.62;103078.53;5024637;28;20273;-77
2022/03/21 08:55:14;;;;;;;112.75;38.22;;;;;;;7.46;72.46;103077.50;5024589;28;20322;-77
2022/03/21 08:57:39;;;;;;;111.53;39.53;;;;;;;7.59;72.70;103071.47;5025453;28;20041;-77
2022/03/21 09:00:07;;;;;;;118.82;38.22;;;;;;;7.73;72.18;103070.78;5017613;28;20033;-77
2022/03/21 09:02:33;;;;;;;105.18;39.17;;;;;;;7.86;71.95;103071.66;5024464;28;20079;-77
2022/03/21 09:04:58;;;;;;;114.45;39.10;;;;;;;7.99;71.83;103069.13;5024421;28;20030;-77
2022/03/21 09:07:24;;;;;;;114.28;36.80;;;;;;;8.10;69.32;103068.19;5024132;28;20038;-77
2022/03/21 09:09:50;;;;;;;104.97;37.80;;;;;;;8.21;69.61;103076.72;5023136;28;20322;-77
2022/03/21 09:12:15;;;;;;;110.68;38.65;;;;;;;8.35;70.54;103085.47;5024931;28;20064;-77
2022/03/21 09:14:41;;;;;;;107.40;37.78;;;;;;;8.48;69.50;103077.75;5026739;28;20048;-77
2022/03/21 09:17:07;;;;;;;102.95;36.28;;;;;;;8.59;69.08;103075.91;5032181;28;20022;-77
2022/03/21 09:19:32;;;;;;;94.05;34.55;;;;;;;8.70;67.66;103071.41;5019001;28;20048;-77
2022/03/21 09:21:58;;;;;;;90.18;32.42;;;;;;;8.86;68.13;103073.34;5024416;28;20036;-77
2022/03/21 09:24:24;;;;;;;70.97;30.13;;;;;;;9.01;66.14;103070.88;5024573;28;20221;-77
2022/03/21 09:26:49;;;;;;;83.10;31.17;;;;;;;9.12;66.60;103067.25;5025549;28;20105;-77
2022/03/21 09:29:15;;;;;;;61.75;27.30;;;;;;;9.24;65.33;103056.78;5023792;28;20022;-77
2022/03/21 09:31:40;;;;;;;57.67;26.63;;;;;;;9.37;65.50;103061.03;5024224;28;20030;-77
2022/03/21 09:34:07;;;;;;;59.13;26.40;;;;;;;9.56;65.39;103068.34;5023157;28;20211;-77
2022/03/21 09:36:33;;;;;;;46.33;23.00;;;;;;;9.69;64.66;103055.28;5023708;28;20209;-76
2022/03/21 09:38:58;;;;;;;43.28;21.30;;;;;;;9.81;62.92;103059.47;5023293;28;20018;-76
2022/03/21 09:41:26;;;;;;;42.00;20.80;;;;;;;9.92;62.41;103051.53;5022885;28;20057;-76
2022/03/21 09:43:57;;;;;;;41.40;20.92;;;;;;;10.01;62.86;103050.28;5023721;28;20030;-75
2022/03/21 09:46:23;;;;;;;39.08;19.45;;;;;;;10.11;62.49;103050.06;5022581;28;20038;-76
2022/03/21 09:48:50;;;;;;;35.17;18.65;;;;;;;10.20;61.96;103045.38;5022477;28;20045;-76
2022/03/21 09:51:29;;;;;;;33.92;17.63;;;;;;;10.34;60.80;103055.78;5023918;28;20026;-76
2022/03/21 09:53:56;;;;;;;32.45;17.20;;;;;;;10.46;61.89;103047.78;5024290;28;20033;-76
2022/03/21 09:56:22;;;;;;;29.05;16.05;;;;;;;10.54;61.97;103050.06;5023376;28;20060;-76
2022/03/21 09:58:48;;;;;;;30.23;16.15;;;;;;;10.65;60.60;103052.41;5022249;28;20280;-76
2022/03/21 10:01:16;;;;;;;29.40;17.40;;;;;;;10.73;59.43;103041.63;5023191;28;20093;-76
2022/03/21 10:03:42;;;;;;;28.05;16.10;;;;;;;10.83;59.79;103042.13;5023206;28;20041;-75
2022/03/21 10:06:33;;;;;;;28.55;16.45;;;;;;;10.96;61.09;103047.25;5025213;28;20025;-75
2022/03/21 10:09:10;;;;;;;27.05;16.38;;;;;;;11.04;59.09;103038.16;5015864;28;20030;-77
2022/03/21 10:11:36;;;;;;;26.75;16.25;;;;;;;11.12;58.31;103042.13;5025107;28;20026;-76
2022/03/21 10:14:23;;;;;;;28.30;15.85;;;;;;;11.22;59.74;103035.69;5022025;28;20306;-76
2022/03/21 10:16:54;;;;;;;27.23;16.30;;;;;;;11.37;57.54;103032.13;5023466;28;20099;-76
2022/03/21 10:19:19;;;;;;;25.23;16.00;;;;;;;11.43;57.76;103027.28;5010365;28;20042;-76
2022/03/21 10:22:08;;;;;;;26.83;15.98;;;;;;;11.56;59.77;103021.91;5022318;28;20145;-76
2022/03/21 10:24:38;;;;;;;26.90;15.23;;;;;;;11.66;57.17;103033.75;5021869;28;20100;-76
2022/03/21 10:27:04;;;;;;;27.70;15.43;;;;;;;11.74;56.86;103021.09;5022412;28;20113;-76
2022/03/21 10:29:31;;;;;;;27.50;15.15;;;;;;;11.81;56.25;103031.06;5022661;28;20280;-76
2022/03/21 10:31:57;;;;;;;25.35;15.65;;;;;;;11.90;56.68;103025.44;5022644;28;20112;-76
2022/03/21 10:34:25;;;;;;;22.98;15.15;;;;;;;12.03;57.96;103027.91;5022987;28;20288;-76
2022/03/21 10:37:05;;;;;;;26.67;15.90;;;;;;;12.16;55.77;103024.22;5022836;28;20026;-76
2022/03/21 10:39:32;;;;;;;25.75;15.23;;;;;;;12.23;54.92;103025.44;5023481;28;20217;-77
2022/03/21 10:42:01;;;;;;;24.20;16.08;;;;;;;12.26;55.64;103025.59;5022033;28;20193;-76
2022/03/21 10:44:27;;;;;;;25.08;16.50;;;;;;;12.34;55.11;103021.69;5022690;28;20048;-76
2022/03/21 10:46:56;;;;;;;26.52;15.80;;;;;;;12.40;53.97;103029.84;5035541;28;20021;-82
2022/03/21 10:49:30;;;;;;;27.98;16.23;;;;;;;12.53;54.98;103020.91;5021219;28;20033;-83
2022/03/21 10:51:55;;;;;;;27.65;16.17;;;;;;;12.66;55.24;103019.81;5018900;28;20044;-83
2022/03/21 10:54:45;;;;;;;26.73;15.77;;;;;;;12.75;55.26;103019.38;5022845;28;20280;-83
2022/03/21 10:57:31;;;;;;;26.17;16.55;;;;;;;12.80;54.83;103020.47;5021059;28;20203;-83
2022/03/21 11:00:20;;;;;;;30.45;18.45;;;;;;;12.85;54.54;103008.53;5017016;28;20299;-81
2022/03/21 11:02:58;;;;;;;29.20;15.68;;;;;;;12.94;54.18;103014.19;5022199;28;20018;-81
2022/03/21 11:05:26;;;;;;;31.10;16.80;;;;;;;12.98;53.18;103008.28;5019262;28;20301;-80
2022/03/21 11:07:53;;;;;;;25.55;16.67;;;;;;;13.02;52.84;103009.31;5021448;28;20033;-79
2022/03/21 11:10:20;;;;;;;28.63;17.50;;;;;;;13.13;53.47;103004.63;5021563;28;20057;-80
2022/03/21 11:12:45;;;;;;;30.20;17.38;;;;;;;13.23;53.08;103001.63;5021980;28;20093;-80
2022/03/21 11:15:12;;;;;;;26.98;16.92;;;;;;;13.30;52.88;102995.84;5022020;28;20270;-80
2022/03/21 11:17:38;;;;;;;44.33;23.42;;;;;;;13.39;53.03;103000.66;5022450;28;20061;-80
2022/03/21 11:20:05;;;;;;;26.95;17.30;;;;;;;13.47;52.33;103001.00;5021854;28;20025;-80
2022/03/21 11:22:36;;;;;;;29.05;17.45;;;;;;;13.52;51.76;102997.75;5021177;28;20049;-79
2022/03/21 11:25:06;;;;;;;37.25;21.38;;;;;;;13.58;52.17;102994.53;5020993;28;20117;-79
2022/03/21 11:27:41;;;;;;;33.55;18.40;;;;;;;13.69;53.06;102997.66;5018880;28;20044;-79
2022/03/21 11:30:28;;;;;;;28.73;18.02;;;;;;;13.78;54.05;102991.94;5020849;28;20029;-79